sensor_id;sensor_type;location;lat;lon;timestamp;temperature;humidity
33149;DHT22;19506;51.040;3.856;2023-03-01T00:01:18;16.80;99.90
33149;DHT22;19506;51.040;3.856;2023-03-01T00:03:44;16.80;99.90
33149;DHT22;19506;51.040;3.856;2023-03-01T00:06:10;16.80;99.90
33149;DHT22;19506;51.040;3.856;2023-03-01T00:08:36;16.70;99.90
33149;DHT22;19506;51.040;3.856;2023-03-01T00:11:09;16.70;99.90
33149;DHT22;19506;51.040;3.856;2023-03-01T00:13:36;16.70;99.90
33149;DHT22;19506;51.040;3.856;2023-03-01T00:16:07;16.70;99.90
33149;DHT22;19506;51.040;3.856;2023-03-01T00:18:33;16.70;99.90
33149;DHT22;19506;51.040;3.856;2023-03-01T00:20:59;16.70;99.90
33149;DHT22;19506;51.040;3.856;2023-03-01T00:23:25;16.70;99.90
33149;DHT22;19506;51.040;3.856;2023-03-01T00:25:50;16.60;99.90
33149;DHT22;19506;51.040;3.856;2023-03-01T00:28:17;16.70;99.90
33149;DHT22;19506;51.040;3.856;2023-03-01T00:30:42;16.70;99.90
33149;DHT22;19506;51.040;3.856;2023-03-01T00:33:08;16.60;99.90
33149;DHT22;19506;51.040;3.856;2023-03-01T00:35:35;16.60;99.90
33149;DHT22;19506;51.040;3.856;2023-03-01T00:38:00;16.60;99.90
33149;DHT22;19506;51.040;3.856;2023-03-01T00:40:26;16.60;99.90
33149;DHT22;19506;51.040;3.856;2023-03-01T00:42:52;16.60;99.90
33149;DHT22;19506;51.040;3.856;2023-03-01T00:45:18;16.60;99.90
33149;DHT22;19506;51.040;3.856;2023-03-01T00:47:43;16.60;99.90
33149;DHT22;19506;51.040;3.856;2023-03-01T00:50:11;16.60;99.90
33149;DHT22;19506;51.040;3.856;2023-03-01T00:52:37;16.50;99.90
33149;DHT22;19506;51.040;3.856;2023-03-01T00:55:03;16.50;99.90
33149;DHT22;19506;51.040;3.856;2023-03-01T00:57:30;16.50;99.90
33149;DHT22;19506;51.040;3.856;2023-03-01T00:59:55;16.50;99.90
33149;DHT22;19506;51.040;3.856;2023-03-01T01:02:21;16.50;99.90
33149;DHT22;19506;51.040;3.856;2023-03-01T01:04:47;16.40;99.90
33149;DHT22;19506;51.040;3.856;2023-03-01T01:07:13;16.40;99.90
33149;DHT22;19506;51.040;3.856;2023-03-01T01:09:39;16.40;99.90
33149;DHT22;19506;51.040;3.856;2023-03-01T01:12:05;16.40;99.90
33149;DHT22;19506;51.040;3.856;2023-03-01T01:14:31;16.30;99.90
33149;DHT22;19506;51.040;3.856;2023-03-01T01:16:56;16.30;99.90
33149;DHT22;19506;51.040;3.856;2023-03-01T01:19:23;16.30;99.90
33149;DHT22;19506;51.040;3.856;2023-03-01T01:21:49;16.30;99.90
33149;DHT22;19506;51.040;3.856;2023-03-01T01:24:14;16.30;99.90
33149;DHT22;19506;51.040;3.856;2023-03-01T01:26:41;16.30;99.90
33149;DHT22;19506;51.040;3.856;2023-03-01T01:29:07;16.30;99.90
33149;DHT22;19506;51.040;3.856;2023-03-01T01:31:35;16.30;99.90
33149;DHT22;19506;51.040;3.856;2023-03-01T01:34:02;16.30;99.90
33149;DHT22;19506;51.040;3.856;2023-03-01T01:36:29;16.30;99.90
33149;DHT22;19506;51.040;3.856;2023-03-01T01:38:55;16.20;99.90
33149;DHT22;19506;51.040;3.856;2023-03-01T01:41:22;16.20;99.90
33149;DHT22;19506;51.040;3.856;2023-03-01T01:44:20;16.20;99.90
33149;DHT22;19506;51.040;3.856;2023-03-01T01:52:25;16.20;99.90
33149;DHT22;19506;51.040;3.856;2023-03-01T01:55:13;16.20;99.90
33149;DHT22;19506;51.040;3.856;2023-03-01T01:57:50;16.20;99.90
33149;DHT22;19506;51.040;3.856;2023-03-01T02:00:23;16.20;99.90
33149;DHT22;19506;51.040;3.856;2023-03-01T02:02:52;16.20;99.90
33149;DHT22;19506;51.040;3.856;2023-03-01T02:08:13;16.10;99.90
33149;DHT22;19506;51.040;3.856;2023-03-01T02:10:41;16.10;99.90
33149;DHT22;19506;51.040;3.856;2023-03-01T02:13:07;16.10;99.90
33149;DHT22;19506;51.040;3.856;2023-03-01T02:15:34;16.10;99.90
33149;DHT22;19506;51.040;3.856;2023-03-01T02:18:02;16.10;99.90
33149;DHT22;19506;51.040;3.856;2023-03-01T02:21:22;16.00;99.90
33149;DHT22;19506;51.040;3.856;2023-03-01T02:23:39;16.00;99.90
33149;DHT22;19506;51.040;3.856;2023-03-01T02:26:16;16.00;99.90
33149;DHT22;19506;51.040;3.856;2023-03-01T02:28:44;16.00;99.90
33149;DHT22;19506;51.040;3.856;2023-03-01T02:31:13;16.00;99.90
33149;DHT22;19506;51.040;3.856;2023-03-01T02:33:58;16.00;99.90
33149;DHT22;19506;51.040;3.856;2023-03-01T02:36:28;16.00;99.90
33149;DHT22;19506;51.040;3.856;2023-03-01T02:38:58;16.00;99.90
33149;DHT22;19506;51.040;3.856;2023-03-01T02:41:28;16.00;99.90
33149;DHT22;19506;51.040;3.856;2023-03-01T02:43:56;16.00;99.90
33149;DHT22;19506;51.040;3.856;2023-03-01T02:46:23;16.00;99.90
33149;DHT22;19506;51.040;3.856;2023-03-01T02:48:54;16.00;99.90
33149;DHT22;19506;51.040;3.856;2023-03-01T02:51:37;16.00;99.90
33149;DHT22;19506;51.040;3.856;2023-03-01T02:54:28;16.00;99.90
33149;DHT22;19506;51.040;3.856;2023-03-01T02:56:55;16.00;99.90
33149;DHT22;19506;51.040;3.856;2023-03-01T02:59:24;15.90;99.90
33149;DHT22;19506;51.040;3.856;2023-03-01T03:01:52;16.00;99.90
33149;DHT22;19506;51.040;3.856;2023-03-01T03:04:18;16.00;99.90
33149;DHT22;19506;51.040;3.856;2023-03-01T03:06:45;15.90;99.90
33149;DHT22;19506;51.040;3.856;2023-03-01T03:09:11;15.90;99.90
33149;DHT22;19506;51.040;3.856;2023-03-01T03:11:37;16.00;99.90
33149;DHT22;19506;51.040;3.856;2023-03-01T03:14:05;15.90;99.90
33149;DHT22;19506;51.040;3.856;2023-03-01T03:16:31;15.90;99.90
33149;DHT22;19506;51.040;3.856;2023-03-01T03:18:56;15.90;99.90
33149;DHT22;19506;51.040;3.856;2023-03-01T03:21:31;15.90;99.90
33149;DHT22;19506;51.040;3.856;2023-03-01T03:23:57;15.90;99.90
33149;DHT22;19506;51.040;3.856;2023-03-01T03:26:23;15.80;99.90
33149;DHT22;19506;51.040;3.856;2023-03-01T03:28:48;15.80;99.90
33149;DHT22;19506;51.040;3.856;2023-03-01T03:31:14;15.80;99.90
33149;DHT22;19506;51.040;3.856;2023-03-01T03:33:39;15.80;99.90
33149;DHT22;19506;51.040;3.856;2023-03-01T03:36:05;15.80;99.90
33149;DHT22;19506;51.040;3.856;2023-03-01T03:38:31;15.80;99.90
33149;DHT22;19506;51.040;3.856;2023-03-01T03:41:05;15.80;99.90
33149;DHT22;19506;51.040;3.856;2023-03-01T03:43:34;15.80;99.90
33149;DHT22;19506;51.040;3.856;2023-03-01T03:46:01;15.80;99.90
33149;DHT22;19506;51.040;3.856;2023-03-01T03:48:32;15.80;99.90
33149;DHT22;19506;51.040;3.856;2023-03-01T03:50:58;15.80;99.90
33149;DHT22;19506;51.040;3.856;2023-03-01T03:53:24;15.80;99.90
33149;DHT22;19506;51.040;3.856;2023-03-01T03:55:50;15.80;99.90
33149;DHT22;19506;51.040;3.856;2023-03-01T03:58:17;15.80;99.90
33149;DHT22;19506;51.040;3.856;2023-03-01T04:00:45;15.80;99.90
33149;DHT22;19506;51.040;3.856;2023-03-01T04:03:12;15.80;99.90
33149;DHT22;19506;51.040;3.856;2023-03-01T04:05:39;15.80;99.90
33149;DHT22;19506;51.040;3.856;2023-03-01T04:08:04;15.80;99.90
33149;DHT22;19506;51.040;3.856;2023-03-01T04:10:40;15.80;99.90
33149;DHT22;19506;51.040;3.856;2023-03-01T04:13:06;15.80;99.90
33149;DHT22;19506;51.040;3.856;2023-03-01T04:15:32;15.80;99.90
33149;DHT22;19506;51.040;3.856;2023-03-01T04:17:58;15.80;99.90
33149;DHT22;19506;51.040;3.856;2023-03-01T04:20:25;15.90;99.90
33149;DHT22;19506;51.040;3.856;2023-03-01T04:22:52;15.80;99.90
33149;DHT22;19506;51.040;3.856;2023-03-01T04:25:18;15.80;99.90
33149;DHT22;19506;51.040;3.856;2023-03-01T04:27:43;15.80;99.90
33149;DHT22;19506;51.040;3.856;2023-03-01T04:30:09;15.80;99.90
33149;DHT22;19506;51.040;3.856;2023-03-01T04:32:35;15.80;99.90
33149;DHT22;19506;51.040;3.856;2023-03-01T04:35:01;15.80;99.90
33149;DHT22;19506;51.040;3.856;2023-03-01T04:37:26;15.80;99.90
33149;DHT22;19506;51.040;3.856;2023-03-01T04:39:52;15.80;99.90
33149;DHT22;19506;51.040;3.856;2023-03-01T04:42:18;15.80;99.90
33149;DHT22;19506;51.040;3.856;2023-03-01T04:44:44;15.80;99.90
33149;DHT22;19506;51.040;3.856;2023-03-01T04:47:10;15.80;99.90
33149;DHT22;19506;51.040;3.856;2023-03-01T04:49:36;15.80;99.90
33149;DHT22;19506;51.040;3.856;2023-03-01T04:52:02;15.70;99.90
33149;DHT22;19506;51.040;3.856;2023-03-01T04:54:29;15.70;99.90
33149;DHT22;19506;51.040;3.856;2023-03-01T04:56:54;15.70;99.90
33149;DHT22;19506;51.040;3.856;2023-03-01T04:59:20;15.70;99.90
33149;DHT22;19506;51.040;3.856;2023-03-01T05:01:51;15.70;99.90
33149;DHT22;19506;51.040;3.856;2023-03-01T05:04:16;15.70;99.90
33149;DHT22;19506;51.040;3.856;2023-03-01T05:06:42;15.70;99.90
33149;DHT22;19506;51.040;3.856;2023-03-01T05:09:08;15.70;99.90
33149;DHT22;19506;51.040;3.856;2023-03-01T05:11:33;15.70;99.90
33149;DHT22;19506;51.040;3.856;2023-03-01T05:14:04;15.70;99.90
33149;DHT22;19506;51.040;3.856;2023-03-01T05:16:30;15.70;99.90
33149;DHT22;19506;51.040;3.856;2023-03-01T05:18:57;15.60;99.90
33149;DHT22;19506;51.040;3.856;2023-03-01T05:21:22;15.70;99.90
33149;DHT22;19506;51.040;3.856;2023-03-01T05:23:48;15.60;99.90
33149;DHT22;19506;51.040;3.856;2023-03-01T05:26:14;15.60;99.90
33149;DHT22;19506;51.040;3.856;2023-03-01T05:28:39;15.70;99.90
33149;DHT22;19506;51.040;3.856;2023-03-01T05:31:05;15.70;99.90
33149;DHT22;19506;51.040;3.856;2023-03-01T05:33:38;15.70;99.90
33149;DHT22;19506;51.040;3.856;2023-03-01T05:36:04;15.70;99.90
33149;DHT22;19506;51.040;3.856;2023-03-01T05:38:30;15.70;99.90
33149;DHT22;19506;51.040;3.856;2023-03-01T05:40:55;15.60;99.90
33149;DHT22;19506;51.040;3.856;2023-03-01T05:43:21;15.70;99.90
33149;DHT22;19506;51.040;3.856;2023-03-01T05:45:46;15.70;99.90
33149;DHT22;19506;51.040;3.856;2023-03-01T05:48:12;15.60;99.90
33149;DHT22;19506;51.040;3.856;2023-03-01T05:50:39;15.60;99.90
33149;DHT22;19506;51.040;3.856;2023-03-01T05:53:06;15.60;99.90
33149;DHT22;19506;51.040;3.856;2023-03-01T05:55:33;15.60;99.90
33149;DHT22;19506;51.040;3.856;2023-03-01T05:58:00;15.60;99.90
33149;DHT22;19506;51.040;3.856;2023-03-01T06:00:26;15.40;99.90
33149;DHT22;19506;51.040;3.856;2023-03-01T06:02:52;15.30;99.90
33149;DHT22;19506;51.040;3.856;2023-03-01T06:05:18;15.30;99.90
33149;DHT22;19506;51.040;3.856;2023-03-01T06:07:44;15.50;99.90
33149;DHT22;19506;51.040;3.856;2023-03-01T06:10:09;15.70;99.90
33149;DHT22;19506;51.040;3.856;2023-03-01T06:12:36;16.10;99.90
33149;DHT22;19506;51.040;3.856;2023-03-01T06:15:02;16.40;99.90
33149;DHT22;19506;51.040;3.856;2023-03-01T06:17:29;16.80;99.90
33149;DHT22;19506;51.040;3.856;2023-03-01T06:19:55;17.10;99.90
33149;DHT22;19506;51.040;3.856;2023-03-01T06:22:20;17.20;99.90
33149;DHT22;19506;51.040;3.856;2023-03-01T06:24:46;17.50;99.90
33149;DHT22;19506;51.040;3.856;2023-03-01T06:27:11;17.80;99.90
33149;DHT22;19506;51.040;3.856;2023-03-01T06:29:37;17.90;99.90
33149;DHT22;19506;51.040;3.856;2023-03-01T06:32:03;18.10;99.90
33149;DHT22;19506;51.040;3.856;2023-03-01T06:34:28;18.10;99.90
33149;DHT22;19506;51.040;3.856;2023-03-01T06:36:54;18.30;99.90
33149;DHT22;19506;51.040;3.856;2023-03-01T06:39:19;18.40;99.90
33149;DHT22;19506;51.040;3.856;2023-03-01T06:41:45;18.40;99.90
33149;DHT22;19506;51.040;3.856;2023-03-01T06:44:11;18.40;99.90
33149;DHT22;19506;51.040;3.856;2023-03-01T06:46:36;18.30;99.90
33149;DHT22;19506;51.040;3.856;2023-03-01T06:49:02;18.20;99.90
33149;DHT22;19506;51.040;3.856;2023-03-01T06:51:32;18.20;99.90
33149;DHT22;19506;51.040;3.856;2023-03-01T06:53:58;18.10;99.90
33149;DHT22;19506;51.040;3.856;2023-03-01T06:56:23;18.00;99.90
33149;DHT22;19506;51.040;3.856;2023-03-01T06:58:49;18.20;99.90
33149;DHT22;19506;51.040;3.856;2023-03-01T07:01:15;18.00;99.90
33149;DHT22;19506;51.040;3.856;2023-03-01T07:03:40;17.90;99.90
33149;DHT22;19506;51.040;3.856;2023-03-01T07:06:06;17.80;99.90
33149;DHT22;19506;51.040;3.856;2023-03-01T07:08:31;17.80;99.90
33149;DHT22;19506;51.040;3.856;2023-03-01T07:10:57;17.70;99.90
33149;DHT22;19506;51.040;3.856;2023-03-01T07:13:23;17.70;99.90
33149;DHT22;19506;51.040;3.856;2023-03-01T07:15:48;17.60;99.90
33149;DHT22;19506;51.040;3.856;2023-03-01T07:18:14;17.60;99.90
33149;DHT22;19506;51.040;3.856;2023-03-01T07:20:39;17.60;99.90
33149;DHT22;19506;51.040;3.856;2023-03-01T07:23:05;17.60;99.90
33149;DHT22;19506;51.040;3.856;2023-03-01T07:25:31;17.60;99.90
33149;DHT22;19506;51.040;3.856;2023-03-01T07:27:57;17.50;99.90
33149;DHT22;19506;51.040;3.856;2023-03-01T07:30:23;17.50;99.90
33149;DHT22;19506;51.040;3.856;2023-03-01T07:32:51;17.50;99.90
33149;DHT22;19506;51.040;3.856;2023-03-01T07:35:17;17.40;99.90
33149;DHT22;19506;51.040;3.856;2023-03-01T07:37:42;17.30;99.90
33149;DHT22;19506;51.040;3.856;2023-03-01T07:40:08;17.40;99.90
33149;DHT22;19506;51.040;3.856;2023-03-01T07:42:34;17.20;99.90
33149;DHT22;19506;51.040;3.856;2023-03-01T07:44:59;17.20;99.90
33149;DHT22;19506;51.040;3.856;2023-03-01T07:47:25;17.10;99.90
33149;DHT22;19506;51.040;3.856;2023-03-01T07:49:50;17.10;99.90
33149;DHT22;19506;51.040;3.856;2023-03-01T07:52:16;17.00;99.90
33149;DHT22;19506;51.040;3.856;2023-03-01T07:54:44;16.90;99.90
33149;DHT22;19506;51.040;3.856;2023-03-01T07:57:10;16.90;99.90
33149;DHT22;19506;51.040;3.856;2023-03-01T07:59:36;16.80;99.90
33149;DHT22;19506;51.040;3.856;2023-03-01T08:02:01;16.80;99.90
33149;DHT22;19506;51.040;3.856;2023-03-01T08:04:27;16.70;99.90
33149;DHT22;19506;51.040;3.856;2023-03-01T08:06:53;16.70;99.90
33149;DHT22;19506;51.040;3.856;2023-03-01T08:09:18;16.60;99.90
33149;DHT22;19506;51.040;3.856;2023-03-01T08:11:44;16.70;99.90
33149;DHT22;19506;51.040;3.856;2023-03-01T08:14:09;16.70;99.90
33149;DHT22;19506;51.040;3.856;2023-03-01T08:16:38;16.60;99.90
33149;DHT22;19506;51.040;3.856;2023-03-01T08:19:07;16.60;99.90
33149;DHT22;19506;51.040;3.856;2023-03-01T08:21:33;16.50;99.90
33149;DHT22;19506;51.040;3.856;2023-03-01T08:24:03;16.40;99.90
33149;DHT22;19506;51.040;3.856;2023-03-01T08:26:30;16.50;99.90
33149;DHT22;19506;51.040;3.856;2023-03-01T08:28:55;16.50;99.90
33149;DHT22;19506;51.040;3.856;2023-03-01T08:31:22;16.50;99.90
33149;DHT22;19506;51.040;3.856;2023-03-01T08:33:49;16.40;99.90
33149;DHT22;19506;51.040;3.856;2023-03-01T08:36:20;16.50;99.90
33149;DHT22;19506;51.040;3.856;2023-03-01T08:38:46;16.50;99.90
33149;DHT22;19506;51.040;3.856;2023-03-01T08:41:11;16.70;99.90
33149;DHT22;19506;51.040;3.856;2023-03-01T08:43:37;16.80;99.90
33149;DHT22;19506;51.040;3.856;2023-03-01T08:46:02;16.80;99.90
33149;DHT22;19506;51.040;3.856;2023-03-01T08:48:28;16.90;99.90
33149;DHT22;19506;51.040;3.856;2023-03-01T08:50:54;16.90;99.90
33149;DHT22;19506;51.040;3.856;2023-03-01T08:53:19;16.80;99.90
33149;DHT22;19506;51.040;3.856;2023-03-01T08:55:45;16.70;99.90
33149;DHT22;19506;51.040;3.856;2023-03-01T08:58:10;16.70;99.90
33149;DHT22;19506;51.040;3.856;2023-03-01T09:00:36;16.70;99.90
33149;DHT22;19506;51.040;3.856;2023-03-01T09:03:01;16.60;99.90
33149;DHT22;19506;51.040;3.856;2023-03-01T09:05:27;16.60;99.90
33149;DHT22;19506;51.040;3.856;2023-03-01T09:07:53;16.50;99.90
33149;DHT22;19506;51.040;3.856;2023-03-01T09:10:18;16.40;99.90
33149;DHT22;19506;51.040;3.856;2023-03-01T09:12:44;16.50;99.90
33149;DHT22;19506;51.040;3.856;2023-03-01T09:15:09;16.40;99.90
33149;DHT22;19506;51.040;3.856;2023-03-01T09:17:35;16.30;99.90
33149;DHT22;19506;51.040;3.856;2023-03-01T09:20:00;16.30;99.90
33149;DHT22;19506;51.040;3.856;2023-03-01T09:22:26;16.30;99.90
33149;DHT22;19506;51.040;3.856;2023-03-01T09:24:51;16.30;99.90
33149;DHT22;19506;51.040;3.856;2023-03-01T09:27:17;16.40;99.90
33149;DHT22;19506;51.040;3.856;2023-03-01T09:29:44;16.40;99.90
33149;DHT22;19506;51.040;3.856;2023-03-01T09:32:10;16.50;99.90
33149;DHT22;19506;51.040;3.856;2023-03-01T09:34:35;16.60;99.90
33149;DHT22;19506;51.040;3.856;2023-03-01T09:37:24;16.60;99.90
33149;DHT22;19506;51.040;3.856;2023-03-01T09:39:49;16.50;99.90
33149;DHT22;19506;51.040;3.856;2023-03-01T09:42:15;16.50;99.90
33149;DHT22;19506;51.040;3.856;2023-03-01T09:47:45;16.50;99.90
33149;DHT22;19506;51.040;3.856;2023-03-01T09:50:12;16.40;99.90
33149;DHT22;19506;51.040;3.856;2023-03-01T09:52:39;16.50;99.90
33149;DHT22;19506;51.040;3.856;2023-03-01T09:55:13;16.50;99.90
33149;DHT22;19506;51.040;3.856;2023-03-01T10:00:30;16.30;99.90
33149;DHT22;19506;51.040;3.856;2023-03-01T10:06:15;16.20;99.90
33149;DHT22;19506;51.040;3.856;2023-03-01T10:13:52;16.10;99.90
33149;DHT22;19506;51.040;3.856;2023-03-01T10:16:24;16.10;99.90
33149;DHT22;19506;51.040;3.856;2023-03-01T10:18:53;16.00;99.90
33149;DHT22;19506;51.040;3.856;2023-03-01T10:21:19;16.00;99.90
33149;DHT22;19506;51.040;3.856;2023-03-01T10:23:45;15.90;99.90
33149;DHT22;19506;51.040;3.856;2023-03-01T10:26:23;16.00;99.90
33149;DHT22;19506;51.040;3.856;2023-03-01T10:29:00;16.00;99.90
33149;DHT22;19506;51.040;3.856;2023-03-01T10:31:33;16.10;99.90
33149;DHT22;19506;51.040;3.856;2023-03-01T10:34:02;16.20;99.90
33149;DHT22;19506;51.040;3.856;2023-03-01T10:36:30;16.30;99.90
33149;DHT22;19506;51.040;3.856;2023-03-01T10:38:57;16.30;99.90
33149;DHT22;19506;51.040;3.856;2023-03-01T10:41:24;16.30;99.90
33149;DHT22;19506;51.040;3.856;2023-03-01T10:43:51;16.30;99.90
33149;DHT22;19506;51.040;3.856;2023-03-01T10:46:23;16.30;99.90
33149;DHT22;19506;51.040;3.856;2023-03-01T10:51:33;16.30;99.90
33149;DHT22;19506;51.040;3.856;2023-03-01T10:53:59;16.30;99.90
33149;DHT22;19506;51.040;3.856;2023-03-01T10:56:25;16.30;99.90
33149;DHT22;19506;51.040;3.856;2023-03-01T10:58:58;16.20;99.90
33149;DHT22;19506;51.040;3.856;2023-03-01T11:01:25;16.20;99.90
33149;DHT22;19506;51.040;3.856;2023-03-01T11:06:32;16.00;99.90
33149;DHT22;19506;51.040;3.856;2023-03-01T11:09:01;15.90;99.90
33149;DHT22;19506;51.040;3.856;2023-03-01T11:11:38;15.90;99.90
33149;DHT22;19506;51.040;3.856;2023-03-01T11:16:31;15.90;99.90
33149;DHT22;19506;51.040;3.856;2023-03-01T11:21:43;15.80;99.90
33149;DHT22;19506;51.040;3.856;2023-03-01T11:24:11;15.80;99.90
33149;DHT22;19506;51.040;3.856;2023-03-01T11:26:38;15.90;99.90
33149;DHT22;19506;51.040;3.856;2023-03-01T11:29:07;15.80;99.90
33149;DHT22;19506;51.040;3.856;2023-03-01T11:31:38;15.80;99.90
33149;DHT22;19506;51.040;3.856;2023-03-01T11:34:35;15.90;99.90
33149;DHT22;19506;51.040;3.856;2023-03-01T11:36:58;16.00;99.90
33149;DHT22;19506;51.040;3.856;2023-03-01T11:39:31;16.10;99.90
33149;DHT22;19506;51.040;3.856;2023-03-01T11:42:15;16.20;99.90
33149;DHT22;19506;51.040;3.856;2023-03-01T11:44:43;16.30;99.90
33149;DHT22;19506;51.040;3.856;2023-03-01T12:00:12;16.50;99.90
33149;DHT22;19506;51.040;3.856;2023-03-01T12:08:33;16.60;99.90
33149;DHT22;19506;51.040;3.856;2023-03-01T12:13:13;16.70;99.90
33149;DHT22;19506;51.040;3.856;2023-03-01T12:25:34;17.00;99.90
33149;DHT22;19506;51.040;3.856;2023-03-01T12:35:43;16.90;99.90
33149;DHT22;19506;51.040;3.856;2023-03-01T12:38:19;16.90;99.90
33149;DHT22;19506;51.040;3.856;2023-03-01T12:50:59;17.20;99.90
33149;DHT22;19506;51.040;3.856;2023-03-01T12:53:36;17.30;99.90
33149;DHT22;19506;51.040;3.856;2023-03-01T12:56:11;17.50;99.90
33149;DHT22;19506;51.040;3.856;2023-03-01T13:06:10;17.80;99.90
33149;DHT22;19506;51.040;3.856;2023-03-01T13:08:43;17.90;99.90
33149;DHT22;19506;51.040;3.856;2023-03-01T13:11:27;18.00;99.90
33149;DHT22;19506;51.040;3.856;2023-03-01T13:14:08;18.00;99.90
33149;DHT22;19506;51.040;3.856;2023-03-01T13:16:39;18.10;99.90
33149;DHT22;19506;51.040;3.856;2023-03-01T13:19:06;18.20;99.90
33149;DHT22;19506;51.040;3.856;2023-03-01T13:21:31;18.20;99.90
33149;DHT22;19506;51.040;3.856;2023-03-01T13:23:57;18.30;99.90
33149;DHT22;19506;51.040;3.856;2023-03-01T13:26:23;18.30;99.90
33149;DHT22;19506;51.040;3.856;2023-03-01T13:28:55;18.30;99.90
33149;DHT22;19506;51.040;3.856;2023-03-01T13:33:59;18.50;99.90
33149;DHT22;19506;51.040;3.856;2023-03-01T13:44:11;18.70;99.90
33149;DHT22;19506;51.040;3.856;2023-03-01T13:46:38;18.70;99.90
33149;DHT22;19506;51.040;3.856;2023-03-01T13:49:03;18.70;99.90
33149;DHT22;19506;51.040;3.856;2023-03-01T13:51:29;18.70;99.90
33149;DHT22;19506;51.040;3.856;2023-03-01T13:53:55;18.70;99.90
33149;DHT22;19506;51.040;3.856;2023-03-01T13:58:49;18.70;99.90
33149;DHT22;19506;51.040;3.856;2023-03-01T14:01:23;18.70;99.90
33149;DHT22;19506;51.040;3.856;2023-03-01T14:03:48;18.70;99.90
33149;DHT22;19506;51.040;3.856;2023-03-01T14:06:16;18.70;99.90
33149;DHT22;19506;51.040;3.856;2023-03-01T14:08:45;18.60;99.90
33149;DHT22;19506;51.040;3.856;2023-03-01T14:13:48;18.50;99.90
33149;DHT22;19506;51.040;3.856;2023-03-01T14:16:20;18.40;99.90
33149;DHT22;19506;51.040;3.856;2023-03-01T14:21:14;18.40;99.90
33149;DHT22;19506;51.040;3.856;2023-03-01T14:23:41;18.30;99.90
33149;DHT22;19506;51.040;3.856;2023-03-01T14:26:07;18.30;99.90
33149;DHT22;19506;51.040;3.856;2023-03-01T14:28:33;18.30;99.90
33149;DHT22;19506;51.040;3.856;2023-03-01T14:31:02;18.20;99.90
33149;DHT22;19506;51.040;3.856;2023-03-01T14:33:35;18.20;99.90
33149;DHT22;19506;51.040;3.856;2023-03-01T14:36:07;18.20;99.90
33149;DHT22;19506;51.040;3.856;2023-03-01T14:38:34;18.10;99.90
33149;DHT22;19506;51.040;3.856;2023-03-01T14:41:01;18.00;99.90
33149;DHT22;19506;51.040;3.856;2023-03-01T14:43:28;18.10;99.90
33149;DHT22;19506;51.040;3.856;2023-03-01T14:45:54;18.10;99.90
33149;DHT22;19506;51.040;3.856;2023-03-01T14:48:20;18.00;99.90
33149;DHT22;19506;51.040;3.856;2023-03-01T14:50:46;18.00;99.90
33149;DHT22;19506;51.040;3.856;2023-03-01T14:53:17;17.90;99.90
33149;DHT22;19506;51.040;3.856;2023-03-01T14:55:44;17.90;99.90
33149;DHT22;19506;51.040;3.856;2023-03-01T14:58:15;17.80;99.90
33149;DHT22;19506;51.040;3.856;2023-03-01T15:00:53;17.70;99.90
33149;DHT22;19506;51.040;3.856;2023-03-01T15:06:02;17.60;99.90
33149;DHT22;19506;51.040;3.856;2023-03-01T15:08:28;17.50;99.90
33149;DHT22;19506;51.040;3.856;2023-03-01T15:13:24;17.50;99.90
33149;DHT22;19506;51.040;3.856;2023-03-01T15:15:54;17.40;99.90
33149;DHT22;19506;51.040;3.856;2023-03-01T15:18:26;17.40;99.90
33149;DHT22;19506;51.040;3.856;2023-03-01T15:20:52;17.30;99.90
33149;DHT22;19506;51.040;3.856;2023-03-01T15:23:25;17.30;99.90
33149;DHT22;19506;51.040;3.856;2023-03-01T15:25:52;17.20;99.90
33149;DHT22;19506;51.040;3.856;2023-03-01T15:28:28;17.20;99.90
33149;DHT22;19506;51.040;3.856;2023-03-01T15:30:56;17.20;99.90
33149;DHT22;19506;51.040;3.856;2023-03-01T15:35:55;17.10;99.90
33149;DHT22;19506;51.040;3.856;2023-03-01T15:40:56;17.10;99.90
33149;DHT22;19506;51.040;3.856;2023-03-01T15:46:12;17.00;99.90
33149;DHT22;19506;51.040;3.856;2023-03-01T15:48:43;17.00;99.90
33149;DHT22;19506;51.040;3.856;2023-03-01T15:51:09;16.90;99.90
33149;DHT22;19506;51.040;3.856;2023-03-01T15:53:37;16.90;99.90
33149;DHT22;19506;51.040;3.856;2023-03-01T15:56:02;16.90;99.90
33149;DHT22;19506;51.040;3.856;2023-03-01T15:58:28;16.90;99.90
33149;DHT22;19506;51.040;3.856;2023-03-01T16:00:53;16.90;99.90
33149;DHT22;19506;51.040;3.856;2023-03-01T16:03:24;17.00;99.90
33149;DHT22;19506;51.040;3.856;2023-03-01T16:05:50;17.00;99.90
33149;DHT22;19506;51.040;3.856;2023-03-01T16:08:15;17.00;99.90
33149;DHT22;19506;51.040;3.856;2023-03-01T16:10:42;17.00;99.90
33149;DHT22;19506;51.040;3.856;2023-03-01T16:13:10;17.10;99.90
33149;DHT22;19506;51.040;3.856;2023-03-01T16:15:36;17.00;99.90
33149;DHT22;19506;51.040;3.856;2023-03-01T16:18:03;17.00;99.90
33149;DHT22;19506;51.040;3.856;2023-03-01T16:20:30;17.00;99.90
33149;DHT22;19506;51.040;3.856;2023-03-01T16:23:00;16.90;99.90
33149;DHT22;19506;51.040;3.856;2023-03-01T16:25:26;16.90;99.90
33149;DHT22;19506;51.040;3.856;2023-03-01T16:27:51;16.80;99.90
33149;DHT22;19506;51.040;3.856;2023-03-01T16:30:18;16.80;99.90
33149;DHT22;19506;51.040;3.856;2023-03-01T16:32:44;16.70;99.90
33149;DHT22;19506;51.040;3.856;2023-03-01T16:35:11;16.70;99.90
33149;DHT22;19506;51.040;3.856;2023-03-01T16:37:37;16.70;99.90
33149;DHT22;19506;51.040;3.856;2023-03-01T16:40:03;16.60;99.90
33149;DHT22;19506;51.040;3.856;2023-03-01T16:42:35;16.60;99.90
33149;DHT22;19506;51.040;3.856;2023-03-01T16:45:01;16.60;99.90
33149;DHT22;19506;51.040;3.856;2023-03-01T16:47:27;16.50;99.90
33149;DHT22;19506;51.040;3.856;2023-03-01T16:49:53;16.40;99.90
33149;DHT22;19506;51.040;3.856;2023-03-01T16:52:19;16.50;99.90
33149;DHT22;19506;51.040;3.856;2023-03-01T16:54:44;16.40;99.90
33149;DHT22;19506;51.040;3.856;2023-03-01T16:57:10;16.40;99.90
33149;DHT22;19506;51.040;3.856;2023-03-01T16:59:35;16.40;99.90
33149;DHT22;19506;51.040;3.856;2023-03-01T17:02:02;16.40;99.90
33149;DHT22;19506;51.040;3.856;2023-03-01T17:04:28;16.40;99.90
33149;DHT22;19506;51.040;3.856;2023-03-01T17:06:53;16.40;99.90
33149;DHT22;19506;51.040;3.856;2023-03-01T17:09:19;16.40;99.90
33149;DHT22;19506;51.040;3.856;2023-03-01T17:11:47;16.40;99.90
33149;DHT22;19506;51.040;3.856;2023-03-01T17:14:13;16.40;99.90
33149;DHT22;19506;51.040;3.856;2023-03-01T17:16:40;16.40;99.90
33149;DHT22;19506;51.040;3.856;2023-03-01T17:19:06;16.40;99.90
33149;DHT22;19506;51.040;3.856;2023-03-01T17:21:32;16.40;99.90
33149;DHT22;19506;51.040;3.856;2023-03-01T17:23:57;16.50;99.90
33149;DHT22;19506;51.040;3.856;2023-03-01T17:26:23;16.70;99.90
33149;DHT22;19506;51.040;3.856;2023-03-01T17:28:48;17.00;99.90
33149;DHT22;19506;51.040;3.856;2023-03-01T17:31:17;17.20;99.90
33149;DHT22;19506;51.040;3.856;2023-03-01T17:33:43;17.40;99.90